sensor_id;sensor_type;location;lat;lon;timestamp;P1;durP1;ratioP1;P2;durP2;ratioP2
70866;SDS011;58487;53.474;49.470;2024-02-04T00:00:25;7.22;;;2.08;;
70866;SDS011;58487;53.474;49.470;2024-02-04T00:02:51;7.00;;;2.07;;
70866;SDS011;58487;53.474;49.470;2024-02-04T00:05:18;5.15;;;1.77;;
70866;SDS011;58487;53.474;49.470;2024-02-04T00:07:44;10.52;;;2.97;;
70866;SDS011;58487;53.474;49.470;2024-02-04T00:10:14;6.57;;;1.73;;
70866;SDS011;58487;53.474;49.470;2024-02-04T00:12:45;4.93;;;1.52;;
70866;SDS011;58487;53.474;49.470;2024-02-04T00:15:12;6.63;;;1.83;;
70866;SDS011;58487;53.474;49.470;2024-02-04T00:17:38;7.60;;;2.20;;
70866;SDS011;58487;53.474;49.470;2024-02-04T00:20:05;7.28;;;2.13;;
70866;SDS011;58487;53.474;49.470;2024-02-04T00:22:32;8.15;;;1.70;;
70866;SDS011;58487;53.474;49.470;2024-02-04T00:24:59;6.75;;;1.90;;
70866;SDS011;58487;53.474;49.470;2024-02-04T00:27:31;10.03;;;1.83;;
70866;SDS011;58487;53.474;49.470;2024-02-04T00:29:58;5.00;;;1.73;;
70866;SDS011;58487;53.474;49.470;2024-02-04T00:32:25;7.68;;;2.65;;
70866;SDS011;58487;53.474;49.470;2024-02-04T00:34:52;6.13;;;2.10;;
70866;SDS011;58487;53.474;49.470;2024-02-04T00:37:19;5.20;;;1.58;;
70866;SDS011;58487;53.474;49.470;2024-02-04T00:39:46;7.27;;;1.73;;
70866;SDS011;58487;53.474;49.470;2024-02-04T00:42:12;3.95;;;1.70;;
70866;SDS011;58487;53.474;49.470;2024-02-04T00:44:38;7.63;;;2.03;;
70866;SDS011;58487;53.474;49.470;2024-02-04T00:47:04;6.57;;;1.98;;
70866;SDS011;58487;53.474;49.470;2024-02-04T00:49:31;7.97;;;2.33;;
70866;SDS011;58487;53.474;49.470;2024-02-04T00:51:57;7.27;;;1.70;;
70866;SDS011;58487;53.474;49.470;2024-02-04T00:54:23;8.35;;;1.88;;
70866;SDS011;58487;53.474;49.470;2024-02-04T00:56:50;8.30;;;1.90;;
70866;SDS011;58487;53.474;49.470;2024-02-04T00:59:16;5.30;;;1.65;;
70866;SDS011;58487;53.474;49.470;2024-02-04T01:01:42;4.63;;;1.48;;
70866;SDS011;58487;53.474;49.470;2024-02-04T01:04:09;5.50;;;1.53;;
70866;SDS011;58487;53.474;49.470;2024-02-04T01:06:35;6.07;;;2.10;;
70866;SDS011;58487;53.474;49.470;2024-02-04T01:09:01;5.20;;;1.77;;
70866;SDS011;58487;53.474;49.470;2024-02-04T01:11:27;7.65;;;2.33;;
70866;SDS011;58487;53.474;49.470;2024-02-04T01:13:55;8.80;;;1.88;;
70866;SDS011;58487;53.474;49.470;2024-02-04T01:16:23;4.57;;;1.33;;
70866;SDS011;58487;53.474;49.470;2024-02-04T01:18:49;8.23;;;2.67;;
70866;SDS011;58487;53.474;49.470;2024-02-04T01:21:15;6.13;;;2.50;;
70866;SDS011;58487;53.474;49.470;2024-02-04T01:23:42;11.68;;;3.53;;
70866;SDS011;58487;53.474;49.470;2024-02-04T01:26:08;7.25;;;2.03;;
70866;SDS011;58487;53.474;49.470;2024-02-04T01:28:34;6.47;;;2.00;;
70866;SDS011;58487;53.474;49.470;2024-02-04T01:31:01;3.70;;;1.27;;
70866;SDS011;58487;53.474;49.470;2024-02-04T01:33:27;7.35;;;2.33;;
70866;SDS011;58487;53.474;49.470;2024-02-04T01:35:53;7.30;;;1.90;;
70866;SDS011;58487;53.474;49.470;2024-02-04T01:38:20;7.95;;;2.20;;
70866;SDS011;58487;53.474;49.470;2024-02-04T01:40:46;6.10;;;1.20;;
70866;SDS011;58487;53.474;49.470;2024-02-04T01:43:12;7.00;;;1.45;;
70866;SDS011;58487;53.474;49.470;2024-02-04T01:45:38;6.95;;;2.42;;
70866;SDS011;58487;53.474;49.470;2024-02-04T01:48:05;11.00;;;1.92;;
70866;SDS011;58487;53.474;49.470;2024-02-04T01:50:31;8.75;;;2.03;;
70866;SDS011;58487;53.474;49.470;2024-02-04T01:52:58;4.53;;;1.20;;
70866;SDS011;58487;53.474;49.470;2024-02-04T01:55:24;7.63;;;2.03;;
70866;SDS011;58487;53.474;49.470;2024-02-04T01:57:51;9.07;;;2.10;;
70866;SDS011;58487;53.474;49.470;2024-02-04T02:00:17;7.45;;;2.00;;
70866;SDS011;58487;53.474;49.470;2024-02-04T02:02:44;7.80;;;2.40;;
70866;SDS011;58487;53.474;49.470;2024-02-04T02:05:12;6.27;;;1.90;;
70866;SDS011;58487;53.474;49.470;2024-02-04T02:07:39;5.97;;;1.55;;
70866;SDS011;58487;53.474;49.470;2024-02-04T02:10:06;7.10;;;1.75;;
70866;SDS011;58487;53.474;49.470;2024-02-04T02:12:47;7.30;;;1.60;;
70866;SDS011;58487;53.474;49.470;2024-02-04T02:15:25;6.28;;;1.70;;
70866;SDS011;58487;53.474;49.470;2024-02-04T02:18:07;5.63;;;1.93;;
70866;SDS011;58487;53.474;49.470;2024-02-04T02:20:45;6.45;;;1.90;;
70866;SDS011;58487;53.474;49.470;2024-02-04T02:23:30;8.55;;;1.63;;
70866;SDS011;58487;53.474;49.470;2024-02-04T02:25:58;8.63;;;2.17;;
70866;SDS011;58487;53.474;49.470;2024-02-04T02:28:26;5.28;;;1.48;;
70866;SDS011;58487;53.474;49.470;2024-02-04T02:30:52;6.97;;;1.93;;
70866;SDS011;58487;53.474;49.470;2024-02-04T02:33:18;5.80;;;2.17;;
70866;SDS011;58487;53.474;49.470;2024-02-04T02:35:45;7.50;;;1.60;;
70866;SDS011;58487;53.474;49.470;2024-02-04T02:41:15;7.03;;;1.60;;
70866;SDS011;58487;53.474;49.470;2024-02-04T02:43:42;7.70;;;1.53;;
70866;SDS011;58487;53.474;49.470;2024-02-04T02:46:10;8.65;;;2.08;;
70866;SDS011;58487;53.474;49.470;2024-02-04T02:48:36;5.45;;;1.83;;
70866;SDS011;58487;53.474;49.470;2024-02-04T02:51:03;7.32;;;2.20;;
70866;SDS011;58487;53.474;49.470;2024-02-04T02:53:31;9.20;;;2.13;;
70866;SDS011;58487;53.474;49.470;2024-02-04T02:55:57;6.50;;;2.30;;
70866;SDS011;58487;53.474;49.470;2024-02-04T02:58:24;7.80;;;2.30;;
70866;SDS011;58487;53.474;49.470;2024-02-04T03:00:50;5.40;;;2.00;;
70866;SDS011;58487;53.474;49.470;2024-02-04T03:03:16;6.00;;;2.00;;
70866;SDS011;58487;53.474;49.470;2024-02-04T03:05:42;12.57;;;3.33;;
70866;SDS011;58487;53.474;49.470;2024-02-04T03:08:08;7.97;;;2.50;;
70866;SDS011;58487;53.474;49.470;2024-02-04T03:10:35;8.30;;;2.60;;
70866;SDS011;58487;53.474;49.470;2024-02-04T03:13:01;11.30;;;2.50;;
70866;SDS011;58487;53.474;49.470;2024-02-04T03:15:27;10.38;;;2.72;;
70866;SDS011;58487;53.474;49.470;2024-02-04T03:17:54;9.80;;;3.05;;
70866;SDS011;58487;53.474;49.470;2024-02-04T03:20:20;13.97;;;3.03;;
70866;SDS011;58487;53.474;49.470;2024-02-04T03:22:47;11.93;;;3.63;;
70866;SDS011;58487;53.474;49.470;2024-02-04T03:25:13;11.05;;;3.72;;
70866;SDS011;58487;53.474;49.470;2024-02-04T03:27:40;8.75;;;3.03;;
70866;SDS011;58487;53.474;49.470;2024-02-04T03:30:06;9.60;;;3.25;;
70866;SDS011;58487;53.474;49.470;2024-02-04T03:32:33;10.00;;;2.63;;
70866;SDS011;58487;53.474;49.470;2024-02-04T03:35:00;14.05;;;2.78;;
70866;SDS011;58487;53.474;49.470;2024-02-04T03:37:27;11.70;;;4.30;;
70866;SDS011;58487;53.474;49.470;2024-02-04T03:39:53;7.68;;;2.88;;
70866;SDS011;58487;53.474;49.470;2024-02-04T03:42:19;6.88;;;2.55;;
70866;SDS011;58487;53.474;49.470;2024-02-04T03:44:47;11.73;;;3.13;;
70866;SDS011;58487;53.474;49.470;2024-02-04T03:47:14;13.63;;;4.57;;
70866;SDS011;58487;53.474;49.470;2024-02-04T03:49:41;8.45;;;2.80;;
70866;SDS011;58487;53.474;49.470;2024-02-04T03:52:07;8.68;;;3.08;;
70866;SDS011;58487;53.474;49.470;2024-02-04T03:54:33;9.40;;;4.35;;
70866;SDS011;58487;53.474;49.470;2024-02-04T03:56:59;14.27;;;4.20;;
70866;SDS011;58487;53.474;49.470;2024-02-04T03:59:26;10.20;;;3.72;;
70866;SDS011;58487;53.474;49.470;2024-02-04T04:01:52;12.75;;;4.30;;
70866;SDS011;58487;53.474;49.470;2024-02-04T04:04:23;14.15;;;3.72;;
70866;SDS011;58487;53.474;49.470;2024-02-04T04:06:49;9.45;;;3.10;;
70866;SDS011;58487;53.474;49.470;2024-02-04T04:09:16;12.67;;;3.70;;
70866;SDS011;58487;53.474;49.470;2024-02-04T04:11:42;6.80;;;2.40;;
70866;SDS011;58487;53.474;49.470;2024-02-04T04:14:08;6.90;;;2.47;;
70866;SDS011;58487;53.474;49.470;2024-02-04T04:16:35;9.73;;;3.22;;
70866;SDS011;58487;53.474;49.470;2024-02-04T04:19:01;9.23;;;3.13;;
70866;SDS011;58487;53.474;49.470;2024-02-04T04:21:28;10.97;;;3.43;;
70866;SDS011;58487;53.474;49.470;2024-02-04T04:23:54;8.93;;;3.08;;
70866;SDS011;58487;53.474;49.470;2024-02-04T04:26:21;7.95;;;2.60;;
70866;SDS011;58487;53.474;49.470;2024-02-04T04:28:47;8.40;;;3.42;;
70866;SDS011;58487;53.474;49.470;2024-02-04T04:31:13;9.90;;;3.60;;
70866;SDS011;58487;53.474;49.470;2024-02-04T04:33:39;11.53;;;3.30;;
70866;SDS011;58487;53.474;49.470;2024-02-04T04:36:06;8.07;;;3.22;;
70866;SDS011;58487;53.474;49.470;2024-02-04T04:38:32;7.63;;;2.63;;
70866;SDS011;58487;53.474;49.470;2024-02-04T04:40:58;5.38;;;2.13;;
70866;SDS011;58487;53.474;49.470;2024-02-04T04:43:25;10.15;;;3.58;;
70866;SDS011;58487;53.474;49.470;2024-02-04T04:45:52;12.17;;;4.47;;
70866;SDS011;58487;53.474;49.470;2024-02-04T04:48:19;14.38;;;4.85;;
70866;SDS011;58487;53.474;49.470;2024-02-04T04:50:45;7.70;;;2.58;;
70866;SDS011;58487;53.474;49.470;2024-02-04T04:53:12;3.38;;;1.27;;
70866;SDS011;58487;53.474;49.470;2024-02-04T04:55:38;5.70;;;1.63;;
70866;SDS011;58487;53.474;49.470;2024-02-04T04:58:05;6.70;;;1.90;;
70866;SDS011;58487;53.474;49.470;2024-02-04T05:00:31;13.02;;;4.25;;
70866;SDS011;58487;53.474;49.470;2024-02-04T05:02:57;10.02;;;3.90;;
70866;SDS011;58487;53.474;49.470;2024-02-04T05:05:24;8.82;;;2.97;;
70866;SDS011;58487;53.474;49.470;2024-02-04T05:07:50;12.70;;;3.28;;
70866;SDS011;58487;53.474;49.470;2024-02-04T05:10:17;10.93;;;3.33;;
70866;SDS011;58487;53.474;49.470;2024-02-04T05:12:43;10.52;;;3.30;;
70866;SDS011;58487;53.474;49.470;2024-02-04T05:15:09;9.77;;;3.85;;
70866;SDS011;58487;53.474;49.470;2024-02-04T05:17:36;15.18;;;3.90;;
70866;SDS011;58487;53.474;49.470;2024-02-04T05:20:03;9.52;;;3.25;;
70866;SDS011;58487;53.474;49.470;2024-02-04T05:22:30;8.53;;;3.40;;
70866;SDS011;58487;53.474;49.470;2024-02-04T05:24:56;11.45;;;3.42;;
70866;SDS011;58487;53.474;49.470;2024-02-04T05:27:22;8.35;;;3.20;;
70866;SDS011;58487;53.474;49.470;2024-02-04T05:29:49;10.48;;;3.22;;
70866;SDS011;58487;53.474;49.470;2024-02-04T05:32:15;10.23;;;3.67;;
70866;SDS011;58487;53.474;49.470;2024-02-04T05:34:41;10.10;;;3.70;;
70866;SDS011;58487;53.474;49.470;2024-02-04T05:37:14;10.52;;;3.17;;
70866;SDS011;58487;53.474;49.470;2024-02-04T05:39:41;9.20;;;3.63;;
70866;SDS011;58487;53.474;49.470;2024-02-04T05:42:07;10.52;;;3.80;;
70866;SDS011;58487;53.474;49.470;2024-02-04T05:44:33;10.10;;;4.00;;
70866;SDS011;58487;53.474;49.470;2024-02-04T05:46:59;9.07;;;3.57;;
70866;SDS011;58487;53.474;49.470;2024-02-04T05:49:26;10.65;;;3.72;;
70866;SDS011;58487;53.474;49.470;2024-02-04T05:51:52;9.35;;;3.22;;
70866;SDS011;58487;53.474;49.470;2024-02-04T05:54:18;12.73;;;3.65;;
70866;SDS011;58487;53.474;49.470;2024-02-04T05:56:44;10.38;;;2.92;;
70866;SDS011;58487;53.474;49.470;2024-02-04T05:59:11;10.60;;;3.57;;
70866;SDS011;58487;53.474;49.470;2024-02-04T06:01:37;8.85;;;3.45;;
70866;SDS011;58487;53.474;49.470;2024-02-04T06:04:03;8.77;;;3.30;;
70866;SDS011;58487;53.474;49.470;2024-02-04T06:06:30;7.95;;;3.45;;
70866;SDS011;58487;53.474;49.470;2024-02-04T06:08:56;15.88;;;3.88;;
70866;SDS011;58487;53.474;49.470;2024-02-04T06:11:24;10.83;;;3.63;;
70866;SDS011;58487;53.474;49.470;2024-02-04T06:13:50;7.57;;;3.28;;
70866;SDS011;58487;53.474;49.470;2024-02-04T06:16:17;9.80;;;3.17;;
70866;SDS011;58487;53.474;49.470;2024-02-04T06:18:43;12.15;;;3.53;;
70866;SDS011;58487;53.474;49.470;2024-02-04T06:21:09;11.07;;;3.42;;
70866;SDS011;58487;53.474;49.470;2024-02-04T06:23:37;10.10;;;3.03;;
70866;SDS011;58487;53.474;49.470;2024-02-04T06:26:08;8.90;;;3.78;;
70866;SDS011;58487;53.474;49.470;2024-02-04T06:28:35;10.15;;;3.33;;
70866;SDS011;58487;53.474;49.470;2024-02-04T06:31:01;12.23;;;5.38;;
70866;SDS011;58487;53.474;49.470;2024-02-04T06:33:28;9.90;;;3.80;;
70866;SDS011;58487;53.474;49.470;2024-02-04T06:35:54;8.67;;;3.17;;
70866;SDS011;58487;53.474;49.470;2024-02-04T06:38:21;7.68;;;2.80;;
70866;SDS011;58487;53.474;49.470;2024-02-04T06:40:47;7.68;;;2.58;;
70866;SDS011;58487;53.474;49.470;2024-02-04T06:43:14;22.58;;;8.00;;
70866;SDS011;58487;53.474;49.470;2024-02-04T06:45:40;9.57;;;3.03;;
70866;SDS011;58487;53.474;49.470;2024-02-04T06:48:07;9.50;;;3.33;;
70866;SDS011;58487;53.474;49.470;2024-02-04T06:50:33;10.95;;;3.45;;
70866;SDS011;58487;53.474;49.470;2024-02-04T06:53:00;8.40;;;3.53;;
70866;SDS011;58487;53.474;49.470;2024-02-04T06:55:26;7.93;;;2.95;;
70866;SDS011;58487;53.474;49.470;2024-02-04T06:57:53;13.50;;;3.45;;
70866;SDS011;58487;53.474;49.470;2024-02-04T07:00:20;8.60;;;2.83;;
70866;SDS011;58487;53.474;49.470;2024-02-04T07:02:47;9.65;;;3.08;;
70866;SDS011;58487;53.474;49.470;2024-02-04T07:05:13;9.35;;;3.42;;
70866;SDS011;58487;53.474;49.470;2024-02-04T07:07:41;7.05;;;2.80;;
70866;SDS011;58487;53.474;49.470;2024-02-04T07:10:08;8.95;;;3.35;;
70866;SDS011;58487;53.474;49.470;2024-02-04T07:12:34;5.93;;;2.33;;
70866;SDS011;58487;53.474;49.470;2024-02-04T07:15:00;9.52;;;2.90;;
70866;SDS011;58487;53.474;49.470;2024-02-04T07:17:27;13.60;;;3.05;;
70866;SDS011;58487;53.474;49.470;2024-02-04T07:19:54;8.35;;;3.17;;
70866;SDS011;58487;53.474;49.470;2024-02-04T07:22:20;12.95;;;3.35;;
70866;SDS011;58487;53.474;49.470;2024-02-04T07:24:47;10.53;;;3.13;;
70866;SDS011;58487;53.474;49.470;2024-02-04T07:27:14;8.65;;;3.03;;
70866;SDS011;58487;53.474;49.470;2024-02-04T07:29:43;6.93;;;2.88;;
70866;SDS011;58487;53.474;49.470;2024-02-04T07:32:10;10.15;;;3.63;;
70866;SDS011;58487;53.474;49.470;2024-02-04T07:34:36;13.35;;;3.97;;
70866;SDS011;58487;53.474;49.470;2024-02-04T07:37:02;10.63;;;3.33;;
70866;SDS011;58487;53.474;49.470;2024-02-04T07:39:29;7.95;;;3.25;;
70866;SDS011;58487;53.474;49.470;2024-02-04T07:41:57;9.50;;;3.58;;
70866;SDS011;58487;53.474;49.470;2024-02-04T07:44:27;7.72;;;3.08;;
70866;SDS011;58487;53.474;49.470;2024-02-04T07:46:54;7.72;;;3.15;;
70866;SDS011;58487;53.474;49.470;2024-02-04T07:49:20;8.43;;;2.70;;
70866;SDS011;58487;53.474;49.470;2024-02-04T07:51:46;9.23;;;2.75;;
70866;SDS011;58487;53.474;49.470;2024-02-04T07:54:12;9.63;;;3.35;;
70866;SDS011;58487;53.474;49.470;2024-02-04T07:56:39;10.27;;;3.30;;
70866;SDS011;58487;53.474;49.470;2024-02-04T07:59:05;8.60;;;2.78;;
70866;SDS011;58487;53.474;49.470;2024-02-04T08:01:31;9.43;;;3.03;;
70866;SDS011;58487;53.474;49.470;2024-02-04T08:03:58;8.02;;;3.45;;
70866;SDS011;58487;53.474;49.470;2024-02-04T08:06:25;9.95;;;3.65;;
70866;SDS011;58487;53.474;49.470;2024-02-04T08:08:51;9.50;;;3.42;;
70866;SDS011;58487;53.474;49.470;2024-02-04T08:11:18;10.05;;;3.20;;
70866;SDS011;58487;53.474;49.470;2024-02-04T08:13:44;9.77;;;3.40;;
70866;SDS011;58487;53.474;49.470;2024-02-04T08:16:11;8.23;;;3.45;;
70866;SDS011;58487;53.474;49.470;2024-02-04T08:18:37;10.65;;;3.65;;
70866;SDS011;58487;53.474;49.470;2024-02-04T08:21:04;8.30;;;3.40;;
70866;SDS011;58487;53.474;49.470;2024-02-04T08:23:32;8.55;;;3.00;;
70866;SDS011;58487;53.474;49.470;2024-02-04T08:25:59;7.03;;;2.97;;
70866;SDS011;58487;53.474;49.470;2024-02-04T08:28:25;8.45;;;3.17;;
70866;SDS011;58487;53.474;49.470;2024-02-04T08:30:51;9.13;;;2.88;;
70866;SDS011;58487;53.474;49.470;2024-02-04T08:33:18;8.77;;;3.10;;
70866;SDS011;58487;53.474;49.470;2024-02-04T08:35:44;12.60;;;3.58;;
70866;SDS011;58487;53.474;49.470;2024-02-04T08:38:10;8.20;;;3.20;;
70866;SDS011;58487;53.474;49.470;2024-02-04T08:40:37;7.70;;;3.15;;
70866;SDS011;58487;53.474;49.470;2024-02-04T08:43:03;13.38;;;4.05;;
70866;SDS011;58487;53.474;49.470;2024-02-04T08:45:29;6.43;;;2.80;;
70866;SDS011;58487;53.474;49.470;2024-02-04T08:47:55;7.18;;;3.33;;
70866;SDS011;58487;53.474;49.470;2024-02-04T08:50:22;8.93;;;3.20;;
70866;SDS011;58487;53.474;49.470;2024-02-04T08:52:48;7.90;;;3.10;;
70866;SDS011;58487;53.474;49.470;2024-02-04T08:55:14;10.10;;;3.40;;
70866;SDS011;58487;53.474;49.470;2024-02-04T08:57:41;8.48;;;3.22;;
70866;SDS011;58487;53.474;49.470;2024-02-04T09:00:07;8.45;;;2.83;;
70866;SDS011;58487;53.474;49.470;2024-02-04T09:02:34;8.83;;;3.27;;
70866;SDS011;58487;53.474;49.470;2024-02-04T09:05:01;7.40;;;2.35;;
70866;SDS011;58487;53.474;49.470;2024-02-04T09:07:27;9.52;;;3.28;;
70866;SDS011;58487;53.474;49.470;2024-02-04T09:09:55;8.50;;;2.75;;
70866;SDS011;58487;53.474;49.470;2024-02-04T09:12:21;6.30;;;3.00;;
70866;SDS011;58487;53.474;49.470;2024-02-04T09:14:48;9.60;;;2.93;;
70866;SDS011;58487;53.474;49.470;2024-02-04T09:17:14;9.95;;;3.00;;
70866;SDS011;58487;53.474;49.470;2024-02-04T09:19:40;9.77;;;3.47;;
70866;SDS011;58487;53.474;49.470;2024-02-04T09:22:06;11.80;;;2.95;;
70866;SDS011;58487;53.474;49.470;2024-02-04T09:24:33;7.50;;;3.40;;
70866;SDS011;58487;53.474;49.470;2024-02-04T09:26:59;9.43;;;3.70;;
70866;SDS011;58487;53.474;49.470;2024-02-04T09:29:25;8.30;;;3.22;;
70866;SDS011;58487;53.474;49.470;2024-02-04T09:31:52;8.18;;;3.58;;
70866;SDS011;58487;53.474;49.470;2024-02-04T09:34:19;7.97;;;3.17;;
70866;SDS011;58487;53.474;49.470;2024-02-04T09:36:46;10.35;;;3.50;;
70866;SDS011;58487;53.474;49.470;2024-02-04T09:39:14;8.63;;;3.07;;
70866;SDS011;58487;53.474;49.470;2024-02-04T09:41:40;5.90;;;2.55;;
70866;SDS011;58487;53.474;49.470;2024-02-04T09:44:08;8.52;;;3.42;;
70866;SDS011;58487;53.474;49.470;2024-02-04T09:46:35;9.38;;;3.40;;
70866;SDS011;58487;53.474;49.470;2024-02-04T09:49:01;8.43;;;3.60;;
70866;SDS011;58487;53.474;49.470;2024-02-04T09:51:28;7.70;;;3.10;;
70866;SDS011;58487;53.474;49.470;2024-02-04T09:53:55;7.93;;;3.30;;
70866;SDS011;58487;53.474;49.470;2024-02-04T09:56:29;6.10;;;2.67;;
70866;SDS011;58487;53.474;49.470;2024-02-04T09:58:57;7.45;;;2.58;;
70866;SDS011;58487;53.474;49.470;2024-02-04T10:01:23;8.05;;;2.58;;
70866;SDS011;58487;53.474;49.470;2024-02-04T10:03:50;6.93;;;2.40;;
70866;SDS011;58487;53.474;49.470;2024-02-04T10:06:17;9.40;;;3.08;;
70866;SDS011;58487;53.474;49.470;2024-02-04T10:08:43;8.85;;;2.92;;
70866;SDS011;58487;53.474;49.470;2024-02-04T10:11:11;5.50;;;2.40;;
70866;SDS011;58487;53.474;49.470;2024-02-04T10:13:48;6.97;;;2.50;;
70866;SDS011;58487;53.474;49.470;2024-02-04T10:16:15;6.73;;;3.07;;
70866;SDS011;58487;53.474;49.470;2024-02-04T10:18:43;6.55;;;2.50;;
70866;SDS011;58487;53.474;49.470;2024-02-04T10:21:17;7.88;;;3.05;;
70866;SDS011;58487;53.474;49.470;2024-02-04T10:23:48;8.48;;;2.17;;
70866;SDS011;58487;53.474;49.470;2024-02-04T10:26:17;9.30;;;2.95;;
70866;SDS011;58487;53.474;49.470;2024-02-04T10:28:45;8.40;;;3.30;;
70866;SDS011;58487;53.474;49.470;2024-02-04T10:31:13;9.63;;;2.85;;
70866;SDS011;58487;53.474;49.470;2024-02-04T10:33:39;6.93;;;2.47;;
70866;SDS011;58487;53.474;49.470;2024-02-04T10:36:06;9.05;;;2.50;;
70866;SDS011;58487;53.474;49.470;2024-02-04T10:38:32;12.57;;;4.97;;
70866;SDS011;58487;53.474;49.470;2024-02-04T10:40:59;7.20;;;3.13;;
70866;SDS011;58487;53.474;49.470;2024-02-04T10:43:33;6.63;;;2.70;;
70866;SDS011;58487;53.474;49.470;2024-02-04T10:46:01;7.85;;;2.90;;
70866;SDS011;58487;53.474;49.470;2024-02-04T10:48:37;6.95;;;3.05;;
70866;SDS011;58487;53.474;49.470;2024-02-04T10:51:13;6.32;;;2.88;;
70866;SDS011;58487;53.474;49.470;2024-02-04T10:53:41;6.87;;;2.80;;
70866;SDS011;58487;53.474;49.470;2024-02-04T10:56:18;6.97;;;2.88;;
70866;SDS011;58487;53.474;49.470;2024-02-04T10:58:51;6.63;;;2.40;;
70866;SDS011;58487;53.474;49.470;2024-02-04T11:01:19;8.02;;;2.35;;
70866;SDS011;58487;53.474;49.470;2024-02-04T11:03:46;6.82;;;2.75;;
70866;SDS011;58487;53.474;49.470;2024-02-04T11:06:14;7.83;;;2.67;;
70866;SDS011;58487;53.474;49.470;2024-02-04T11:08:40;6.88;;;2.63;;
70866;SDS011;58487;53.474;49.470;2024-02-04T11:11:08;5.32;;;2.35;;
70866;SDS011;58487;53.474;49.470;2024-02-04T11:13:34;7.28;;;2.63;;
70866;SDS011;58487;53.474;49.470;2024-02-04T11:16:04;7.32;;;2.67;;
70866;SDS011;58487;53.474;49.470;2024-02-04T11:18:40;5.50;;;2.10;;
70866;SDS011;58487;53.474;49.470;2024-02-04T11:21:20;5.75;;;2.40;;
70866;SDS011;58487;53.474;49.470;2024-02-04T11:26:34;5.80;;;2.28;;
70866;SDS011;58487;53.474;49.470;2024-02-04T11:29:01;6.82;;;2.72;;
70866;SDS011;58487;53.474;49.470;2024-02-04T11:31:28;6.83;;;2.43;;
70866;SDS011;58487;53.474;49.470;2024-02-04T11:33:56;8.15;;;3.15;;
70866;SDS011;58487;53.474;49.470;2024-02-04T11:36:25;6.68;;;2.50;;
70866;SDS011;58487;53.474;49.470;2024-02-04T11:38:51;5.03;;;2.30;;
70866;SDS011;58487;53.474;49.470;2024-02-04T11:41:21;5.25;;;2.05;;
70866;SDS011;58487;53.474;49.470;2024-02-04T11:43:52;5.53;;;2.00;;
70866;SDS011;58487;53.474;49.470;2024-02-04T11:46:22;6.85;;;2.20;;
70866;SDS011;58487;53.474;49.470;2024-02-04T11:48:53;5.45;;;2.30;;
70866;SDS011;58487;53.474;49.470;2024-02-04T11:51:23;8.13;;;2.83;;
70866;SDS011;58487;53.474;49.470;2024-02-04T11:53:50;6.50;;;2.67;;
70866;SDS011;58487;53.474;49.470;2024-02-04T11:56:20;6.73;;;2.40;;
70866;SDS011;58487;53.474;49.470;2024-02-04T11:58:49;5.38;;;2.10;;
70866;SDS011;58487;53.474;49.470;2024-02-04T12:01:16;6.70;;;2.30;;
70866;SDS011;58487;53.474;49.470;2024-02-04T12:03:42;6.53;;;2.38;;
70866;SDS011;58487;53.474;49.470;2024-02-04T12:06:09;5.57;;;2.38;;
70866;SDS011;58487;53.474;49.470;2024-02-04T12:08:36;4.83;;;1.93;;
70866;SDS011;58487;53.474;49.470;2024-02-04T12:11:04;7.05;;;2.20;;
70866;SDS011;58487;53.474;49.470;2024-02-04T12:13:30;7.10;;;2.20;;
70866;SDS011;58487;53.474;49.470;2024-02-04T12:15:57;5.82;;;2.03;;
70866;SDS011;58487;53.474;49.470;2024-02-04T12:18:24;5.15;;;2.20;;
70866;SDS011;58487;53.474;49.470;2024-02-04T12:20:50;9.10;;;3.00;;
70866;SDS011;58487;53.474;49.470;2024-02-04T12:23:17;6.35;;;2.38;;
70866;SDS011;58487;53.474;49.470;2024-02-04T12:25:45;5.55;;;2.17;;
70866;SDS011;58487;53.474;49.470;2024-02-04T12:28:11;6.25;;;2.10;;
70866;SDS011;58487;53.474;49.470;2024-02-04T12:30:39;5.10;;;2.00;;
70866;SDS011;58487;53.474;49.470;2024-02-04T12:33:06;5.33;;;1.97;;
70866;SDS011;58487;53.474;49.470;2024-02-04T12:35:32;5.28;;;2.00;;
70866;SDS011;58487;53.474;49.470;2024-02-04T12:37:59;5.28;;;2.10;;
70866;SDS011;58487;53.474;49.470;2024-02-04T12:40:27;5.20;;;2.10;;
70866;SDS011;58487;53.474;49.470;2024-02-04T12:42:55;5.32;;;1.90;;
70866;SDS011;58487;53.474;49.470;2024-02-04T12:45:22;5.23;;;2.07;;
70866;SDS011;58487;53.474;49.470;2024-02-04T12:47:53;5.93;;;2.30;;
70866;SDS011;58487;53.474;49.470;2024-02-04T12:50:24;5.75;;;2.33;;
70866;SDS011;58487;53.474;49.470;2024-02-04T12:55:34;5.43;;;2.03;;
70866;SDS011;58487;53.474;49.470;2024-02-04T12:58:02;4.97;;;1.87;;
70866;SDS011;58487;53.474;49.470;2024-02-04T13:00:30;5.78;;;1.90;;
70866;SDS011;58487;53.474;49.470;2024-02-04T13:02:58;5.05;;;1.90;;
70866;SDS011;58487;53.474;49.470;2024-02-04T13:05:25;4.93;;;1.80;;
70866;SDS011;58487;53.474;49.470;2024-02-04T13:07:55;4.05;;;1.50;;
70866;SDS011;58487;53.474;49.470;2024-02-04T13:10:29;4.80;;;1.87;;
70866;SDS011;58487;53.474;49.470;2024-02-04T13:15:40;6.20;;;1.90;;
70866;SDS011;58487;53.474;49.470;2024-02-04T13:18:07;5.28;;;1.98;;
70866;SDS011;58487;53.474;49.470;2024-02-04T13:20:33;6.18;;;1.98;;
70866;SDS011;58487;53.474;49.470;2024-02-04T13:23:01;5.90;;;1.90;;
70866;SDS011;58487;53.474;49.470;2024-02-04T13:25:31;6.03;;;2.13;;
70866;SDS011;58487;53.474;49.470;2024-02-04T13:27:57;6.53;;;2.20;;
70866;SDS011;58487;53.474;49.470;2024-02-04T13:30:24;5.93;;;2.20;;
70866;SDS011;58487;53.474;49.470;2024-02-04T13:32:50;5.80;;;2.05;;
70866;SDS011;58487;53.474;49.470;2024-02-04T13:35:16;4.30;;;1.87;;
70866;SDS011;58487;53.474;49.470;2024-02-04T13:37:44;4.90;;;1.92;;
70866;SDS011;58487;53.474;49.470;2024-02-04T13:40:16;5.35;;;2.13;;
70866;SDS011;58487;53.474;49.470;2024-02-04T13:42:46;6.18;;;2.45;;
70866;SDS011;58487;53.474;49.470;2024-02-04T13:45:13;5.18;;;2.08;;
70866;SDS011;58487;53.474;49.470;2024-02-04T13:47:40;5.93;;;2.00;;
70866;SDS011;58487;53.474;49.470;2024-02-04T13:50:07;6.15;;;2.65;;
70866;SDS011;58487;53.474;49.470;2024-02-04T13:52:34;6.05;;;2.22;;
70866;SDS011;58487;53.474;49.470;2024-02-04T13:55:02;6.43;;;2.42;;
70866;SDS011;58487;53.474;49.470;2024-02-04T13:57:33;7.13;;;2.50;;
70866;SDS011;58487;53.474;49.470;2024-02-04T13:59:59;6.03;;;2.60;;
70866;SDS011;58487;53.474;49.470;2024-02-04T14:02:26;6.03;;;2.22;;
70866;SDS011;58487;53.474;49.470;2024-02-04T14:04:56;5.57;;;2.13;;
70866;SDS011;58487;53.474;49.470;2024-02-04T14:07:22;5.15;;;2.05;;
70866;SDS011;58487;53.474;49.470;2024-02-04T14:09:49;5.40;;;2.30;;
70866;SDS011;58487;53.474;49.470;2024-02-04T14:12:16;5.73;;;1.77;;
70866;SDS011;58487;53.474;49.470;2024-02-04T14:14:42;5.10;;;1.95;;
70866;SDS011;58487;53.474;49.470;2024-02-04T14:17:09;4.82;;;1.92;;
70866;SDS011;58487;53.474;49.470;2024-02-04T14:19:35;6.00;;;2.30;;
70866;SDS011;58487;53.474;49.470;2024-02-04T14:22:02;5.15;;;2.17;;
70866;SDS011;58487;53.474;49.470;2024-02-04T14:24:28;4.87;;;1.67;;
70866;SDS011;58487;53.474;49.470;2024-02-04T14:26:58;4.97;;;2.03;;
70866;SDS011;58487;53.474;49.470;2024-02-04T14:29:25;5.13;;;1.88;;
70866;SDS011;58487;53.474;49.470;2024-02-04T14:31:52;6.03;;;2.50;;
70866;SDS011;58487;53.474;49.470;2024-02-04T14:34:18;5.85;;;2.42;;
70866;SDS011;58487;53.474;49.470;2024-02-04T14:36:44;5.87;;;2.50;;
70866;SDS011;58487;53.474;49.470;2024-02-04T14:39:11;3.88;;;1.42;;
70866;SDS011;58487;53.474;49.470;2024-02-04T14:41:37;6.25;;;2.47;;